Huvudsida
METAR-TAF:

METAR-TAF

Flygplatser :

Girona-Costa Bravas flygplats

Girona, Spanien

latitud: 41-54N, longitud: 002-46E, höjd: 143 m

Aktuellt väderrapport

Denna rapport gjordes för 18 minuter sedan, klockan 06:00 UTC
Vind 1 kt varierande vindriktning
Temperatur 19°C
Fuktighet 83%
Tryck 1020 hPa
Sikt 10 km eller mer
Få moln på en höjd av 3500 ft

METAR: LEGE 230600Z VRB01KT 9999 FEW035 19/16 Q1020 NOSIG

Tid: 08:18 (06:18 UTC)

Väderprognos

Denna rapport gjordes för 1 timme och 18 minuter sedan, klockan 05:00 UTC
Prognos gäller från 23 kl. 06 UTC till 24 kl. 06 UTC
Vind 4 kt varierande vindriktning
Sikt 10 km eller mer
Få moln på en höjd av 3000 ft
Temporärt
från 23 kl. 11 UTC till 23 kl. 18 UTC
Vind 10 kt från syd

TAF: LEGE 230500Z 2306/2406 VRB04KT 9999 FEW030 TX36/2313Z TN20/2405Z TEMPO 2311/2318 18010KT

Aktuella väderrapporter och prognoser från 4000 flygplatser (METAR- och TAF-rapporter).

De tillgängliga stationerna syns som gula och röda prickar på kartan.

För musen över prickarna för att se namnen på stationerna.

Klicka sedan för att få väderrapporter och prognoser.

För att ändra kartan: Klicka på de gröna knapparna med ett svart kors på för att zooma in; den gröna knappen med ett streck på för att zooma ut; eller på de gröna pilarna för angränsande kartor.


METAR-TAF: